sensor_id;sensor_type;location;lat;lon;timestamp;temperature;humidity
28677;DHT22;15858;48.338;11.078;2023-11-21T00:02:07;7.50;99.90
28677;DHT22;15858;48.338;11.078;2023-11-21T00:04:34;7.50;99.90
28677;DHT22;15858;48.338;11.078;2023-11-21T00:07:00;7.40;99.90
28677;DHT22;15858;48.338;11.078;2023-11-21T00:09:27;7.50;99.90
28677;DHT22;15858;48.338;11.078;2023-11-21T00:11:54;7.50;99.90
28677;DHT22;15858;48.338;11.078;2023-11-21T00:14:20;7.50;99.90
28677;DHT22;15858;48.338;11.078;2023-11-21T00:16:47;7.50;99.90
28677;DHT22;15858;48.338;11.078;2023-11-21T00:19:14;7.50;99.90
28677;DHT22;15858;48.338;11.078;2023-11-21T00:21:40;7.60;99.90
28677;DHT22;15858;48.338;11.078;2023-11-21T00:24:07;7.60;99.90
28677;DHT22;15858;48.338;11.078;2023-11-21T00:26:34;7.60;99.90
28677;DHT22;15858;48.338;11.078;2023-11-21T00:29:01;7.60;99.90
28677;DHT22;15858;48.338;11.078;2023-11-21T00:31:27;7.60;99.90
28677;DHT22;15858;48.338;11.078;2023-11-21T00:33:54;7.60;99.90
28677;DHT22;15858;48.338;11.078;2023-11-21T00:36:20;7.60;99.90
28677;DHT22;15858;48.338;11.078;2023-11-21T00:38:47;7.60;99.90
28677;DHT22;15858;48.338;11.078;2023-11-21T00:41:14;7.50;99.90
28677;DHT22;15858;48.338;11.078;2023-11-21T00:43:41;7.60;99.90
28677;DHT22;15858;48.338;11.078;2023-11-21T00:46:07;7.60;99.90
28677;DHT22;15858;48.338;11.078;2023-11-21T00:48:34;7.50;99.90
28677;DHT22;15858;48.338;11.078;2023-11-21T00:51:01;7.60;99.90
28677;DHT22;15858;48.338;11.078;2023-11-21T00:53:27;7.60;99.90
28677;DHT22;15858;48.338;11.078;2023-11-21T00:55:54;7.60;99.90
28677;DHT22;15858;48.338;11.078;2023-11-21T00:58:21;7.60;99.90
28677;DHT22;15858;48.338;11.078;2023-11-21T01:00:47;7.50;99.90
28677;DHT22;15858;48.338;11.078;2023-11-21T01:03:14;7.60;99.90
28677;DHT22;15858;48.338;11.078;2023-11-21T01:05:41;7.60;99.90
28677;DHT22;15858;48.338;11.078;2023-11-21T01:08:07;7.60;99.90
28677;DHT22;15858;48.338;11.078;2023-11-21T01:10:34;7.50;99.90
28677;DHT22;15858;48.338;11.078;2023-11-21T01:13:01;7.50;99.90
28677;DHT22;15858;48.338;11.078;2023-11-21T01:15:27;7.60;99.90
28677;DHT22;15858;48.338;11.078;2023-11-21T01:17:54;7.60;99.90
28677;DHT22;15858;48.338;11.078;2023-11-21T01:20:21;7.60;99.90
28677;DHT22;15858;48.338;11.078;2023-11-21T01:22:47;7.60;99.90
28677;DHT22;15858;48.338;11.078;2023-11-21T01:25:14;7.60;99.90
28677;DHT22;15858;48.338;11.078;2023-11-21T01:27:42;7.60;99.90
28677;DHT22;15858;48.338;11.078;2023-11-21T01:30:09;7.60;99.90
28677;DHT22;15858;48.338;11.078;2023-11-21T01:32:36;7.60;99.90
28677;DHT22;15858;48.338;11.078;2023-11-21T01:35:04;7.50;99.90
28677;DHT22;15858;48.338;11.078;2023-11-21T01:37:30;7.60;99.90
28677;DHT22;15858;48.338;11.078;2023-11-21T01:39:57;7.50;99.90
28677;DHT22;15858;48.338;11.078;2023-11-21T01:42:24;7.50;99.90
28677;DHT22;15858;48.338;11.078;2023-11-21T01:44:50;7.40;99.90
28677;DHT22;15858;48.338;11.078;2023-11-21T01:47:17;7.30;99.90
28677;DHT22;15858;48.338;11.078;2023-11-21T01:49:45;7.30;99.90
28677;DHT22;15858;48.338;11.078;2023-11-21T01:52:12;7.30;99.90
28677;DHT22;15858;48.338;11.078;2023-11-21T01:54:39;7.20;99.90
28677;DHT22;15858;48.338;11.078;2023-11-21T01:57:07;7.20;99.90
28677;DHT22;15858;48.338;11.078;2023-11-21T01:59:38;7.20;99.90
28677;DHT22;15858;48.338;11.078;2023-11-21T02:02:08;7.20;99.90
28677;DHT22;15858;48.338;11.078;2023-11-21T02:04:36;7.30;99.90
28677;DHT22;15858;48.338;11.078;2023-11-21T02:07:03;7.20;99.90
28677;DHT22;15858;48.338;11.078;2023-11-21T02:09:29;7.20;99.90
28677;DHT22;15858;48.338;11.078;2023-11-21T02:11:56;7.20;99.90
28677;DHT22;15858;48.338;11.078;2023-11-21T02:14:27;7.20;99.90
28677;DHT22;15858;48.338;11.078;2023-11-21T02:16:55;7.20;99.90
28677;DHT22;15858;48.338;11.078;2023-11-21T02:19:22;7.30;99.90
28677;DHT22;15858;48.338;11.078;2023-11-21T02:21:50;7.30;99.90
28677;DHT22;15858;48.338;11.078;2023-11-21T02:24:20;7.30;99.90
28677;DHT22;15858;48.338;11.078;2023-11-21T02:26:50;7.20;99.90
28677;DHT22;15858;48.338;11.078;2023-11-21T02:29:20;7.30;99.90
28677;DHT22;15858;48.338;11.078;2023-11-21T02:31:49;7.30;99.90
28677;DHT22;15858;48.338;11.078;2023-11-21T02:34:17;7.30;99.90
28677;DHT22;15858;48.338;11.078;2023-11-21T02:36:44;7.30;99.90
28677;DHT22;15858;48.338;11.078;2023-11-21T02:39:11;7.30;99.90
28677;DHT22;15858;48.338;11.078;2023-11-21T02:41:39;7.30;99.90
28677;DHT22;15858;48.338;11.078;2023-11-21T02:44:06;7.30;99.90
28677;DHT22;15858;48.338;11.078;2023-11-21T02:46:34;7.30;99.90
28677;DHT22;15858;48.338;11.078;2023-11-21T02:49:02;7.40;99.90
28677;DHT22;15858;48.338;11.078;2023-11-21T02:51:28;7.40;99.90
28677;DHT22;15858;48.338;11.078;2023-11-21T02:53:55;7.40;99.90
28677;DHT22;15858;48.338;11.078;2023-11-21T02:56:22;7.40;99.90
28677;DHT22;15858;48.338;11.078;2023-11-21T02:58:49;7.30;99.90
28677;DHT22;15858;48.338;11.078;2023-11-21T03:01:15;7.30;99.90
28677;DHT22;15858;48.338;11.078;2023-11-21T03:03:42;7.30;99.90
28677;DHT22;15858;48.338;11.078;2023-11-21T03:06:09;7.30;99.90
28677;DHT22;15858;48.338;11.078;2023-11-21T03:08:36;7.30;99.90
28677;DHT22;15858;48.338;11.078;2023-11-21T03:11:03;7.40;99.90
28677;DHT22;15858;48.338;11.078;2023-11-21T03:13:30;7.30;99.90
28677;DHT22;15858;48.338;11.078;2023-11-21T03:15:56;7.30;99.90
28677;DHT22;15858;48.338;11.078;2023-11-21T03:18:23;7.30;99.90
28677;DHT22;15858;48.338;11.078;2023-11-21T03:20:53;7.20;99.90
28677;DHT22;15858;48.338;11.078;2023-11-21T03:23:20;7.20;99.90
28677;DHT22;15858;48.338;11.078;2023-11-21T03:25:46;7.20;99.90
28677;DHT22;15858;48.338;11.078;2023-11-21T03:28:13;7.20;99.90
28677;DHT22;15858;48.338;11.078;2023-11-21T03:30:40;7.20;99.90
28677;DHT22;15858;48.338;11.078;2023-11-21T03:33:06;7.20;99.90
28677;DHT22;15858;48.338;11.078;2023-11-21T03:35:33;7.20;99.90
28677;DHT22;15858;48.338;11.078;2023-11-21T03:38:00;7.20;99.90
28677;DHT22;15858;48.338;11.078;2023-11-21T03:40:26;7.20;99.90
28677;DHT22;15858;48.338;11.078;2023-11-21T03:42:53;7.10;99.90
28677;DHT22;15858;48.338;11.078;2023-11-21T03:45:20;7.10;99.90
28677;DHT22;15858;48.338;11.078;2023-11-21T03:47:46;7.10;99.90
28677;DHT22;15858;48.338;11.078;2023-11-21T03:50:13;7.10;99.90
28677;DHT22;15858;48.338;11.078;2023-11-21T03:52:40;7.20;99.90
28677;DHT22;15858;48.338;11.078;2023-11-21T03:55:07;7.20;99.90
28677;DHT22;15858;48.338;11.078;2023-11-21T03:57:35;7.20;99.90
28677;DHT22;15858;48.338;11.078;2023-11-21T04:00:02;7.10;99.90
28677;DHT22;15858;48.338;11.078;2023-11-21T04:02:29;7.10;99.90
28677;DHT22;15858;48.338;11.078;2023-11-21T04:04:56;7.20;99.90
28677;DHT22;15858;48.338;11.078;2023-11-21T04:07:23;7.20;99.90
28677;DHT22;15858;48.338;11.078;2023-11-21T04:09:49;7.10;99.90
28677;DHT22;15858;48.338;11.078;2023-11-21T04:12:16;7.10;99.90
28677;DHT22;15858;48.338;11.078;2023-11-21T04:14:43;7.20;99.90
28677;DHT22;15858;48.338;11.078;2023-11-21T04:17:09;7.10;99.90
28677;DHT22;15858;48.338;11.078;2023-11-21T04:19:36;7.20;99.90
28677;DHT22;15858;48.338;11.078;2023-11-21T04:22:03;7.10;99.90
28677;DHT22;15858;48.338;11.078;2023-11-21T04:24:30;7.10;99.90
28677;DHT22;15858;48.338;11.078;2023-11-21T04:26:56;7.10;99.90
28677;DHT22;15858;48.338;11.078;2023-11-21T04:29:23;7.10;99.90
28677;DHT22;15858;48.338;11.078;2023-11-21T04:31:50;7.10;99.90
28677;DHT22;15858;48.338;11.078;2023-11-21T04:34:16;7.10;99.90
28677;DHT22;15858;48.338;11.078;2023-11-21T04:36:43;7.10;99.90
28677;DHT22;15858;48.338;11.078;2023-11-21T04:39:10;7.00;99.90
28677;DHT22;15858;48.338;11.078;2023-11-21T04:41:36;7.00;99.90
28677;DHT22;15858;48.338;11.078;2023-11-21T04:44:04;7.00;99.90
28677;DHT22;15858;48.338;11.078;2023-11-21T04:46:31;7.00;99.90
28677;DHT22;15858;48.338;11.078;2023-11-21T04:48:58;7.00;99.90
28677;DHT22;15858;48.338;11.078;2023-11-21T04:51:25;7.00;99.90
28677;DHT22;15858;48.338;11.078;2023-11-21T04:53:52;7.00;99.90
28677;DHT22;15858;48.338;11.078;2023-11-21T04:56:18;7.00;99.90
28677;DHT22;15858;48.338;11.078;2023-11-21T04:58:45;6.90;99.90
28677;DHT22;15858;48.338;11.078;2023-11-21T05:01:12;7.00;99.90
28677;DHT22;15858;48.338;11.078;2023-11-21T05:03:39;7.00;99.90
28677;DHT22;15858;48.338;11.078;2023-11-21T05:06:06;6.90;99.90
28677;DHT22;15858;48.338;11.078;2023-11-21T05:08:32;6.90;99.90
28677;DHT22;15858;48.338;11.078;2023-11-21T05:10:59;7.00;99.90
28677;DHT22;15858;48.338;11.078;2023-11-21T05:13:26;6.90;99.90
28677;DHT22;15858;48.338;11.078;2023-11-21T05:15:54;6.80;99.90
28677;DHT22;15858;48.338;11.078;2023-11-21T05:18:21;6.80;99.90
28677;DHT22;15858;48.338;11.078;2023-11-21T05:20:47;6.80;99.90
28677;DHT22;15858;48.338;11.078;2023-11-21T05:23:14;6.70;99.90
28677;DHT22;15858;48.338;11.078;2023-11-21T05:25:41;6.80;99.90
28677;DHT22;15858;48.338;11.078;2023-11-21T05:28:07;6.90;99.90
28677;DHT22;15858;48.338;11.078;2023-11-21T05:30:34;6.80;99.90
28677;DHT22;15858;48.338;11.078;2023-11-21T05:33:01;6.70;99.90
28677;DHT22;15858;48.338;11.078;2023-11-21T05:35:27;6.80;99.90
28677;DHT22;15858;48.338;11.078;2023-11-21T05:37:54;6.80;99.90
28677;DHT22;15858;48.338;11.078;2023-11-21T05:40:21;6.70;99.90
28677;DHT22;15858;48.338;11.078;2023-11-21T05:42:47;6.70;99.90
28677;DHT22;15858;48.338;11.078;2023-11-21T05:45:14;6.80;99.90
28677;DHT22;15858;48.338;11.078;2023-11-21T05:47:43;6.70;99.90
28677;DHT22;15858;48.338;11.078;2023-11-21T05:50:10;6.70;99.90
28677;DHT22;15858;48.338;11.078;2023-11-21T05:52:38;6.70;99.90
28677;DHT22;15858;48.338;11.078;2023-11-21T05:55:05;6.70;99.90
28677;DHT22;15858;48.338;11.078;2023-11-21T05:57:32;6.70;99.90
28677;DHT22;15858;48.338;11.078;2023-11-21T05:59:58;6.60;99.90
28677;DHT22;15858;48.338;11.078;2023-11-21T06:02:25;6.70;99.90
28677;DHT22;15858;48.338;11.078;2023-11-21T06:04:51;6.70;99.90
28677;DHT22;15858;48.338;11.078;2023-11-21T06:07:18;6.70;99.90
28677;DHT22;15858;48.338;11.078;2023-11-21T06:09:45;6.70;99.90
28677;DHT22;15858;48.338;11.078;2023-11-21T06:12:11;6.60;99.90
28677;DHT22;15858;48.338;11.078;2023-11-21T06:14:38;6.60;99.90
28677;DHT22;15858;48.338;11.078;2023-11-21T06:17:05;6.60;99.90
28677;DHT22;15858;48.338;11.078;2023-11-21T06:19:31;6.60;99.90
28677;DHT22;15858;48.338;11.078;2023-11-21T06:21:58;6.60;99.90
28677;DHT22;15858;48.338;11.078;2023-11-21T06:24:25;6.60;99.90
28677;DHT22;15858;48.338;11.078;2023-11-21T06:26:51;6.50;99.90
28677;DHT22;15858;48.338;11.078;2023-11-21T06:29:18;6.50;99.90
28677;DHT22;15858;48.338;11.078;2023-11-21T06:31:44;6.50;99.90
28677;DHT22;15858;48.338;11.078;2023-11-21T06:34:11;6.40;99.90
28677;DHT22;15858;48.338;11.078;2023-11-21T06:36:38;6.50;99.90
28677;DHT22;15858;48.338;11.078;2023-11-21T06:39:04;6.50;99.90
28677;DHT22;15858;48.338;11.078;2023-11-21T06:41:31;6.60;99.90
28677;DHT22;15858;48.338;11.078;2023-11-21T06:43:58;6.50;99.90
28677;DHT22;15858;48.338;11.078;2023-11-21T06:46:24;6.60;99.90
28677;DHT22;15858;48.338;11.078;2023-11-21T06:48:51;6.50;99.90
28677;DHT22;15858;48.338;11.078;2023-11-21T06:51:18;6.50;99.90
28677;DHT22;15858;48.338;11.078;2023-11-21T06:53:44;6.60;99.90
28677;DHT22;15858;48.338;11.078;2023-11-21T06:56:18;6.50;99.90
28677;DHT22;15858;48.338;11.078;2023-11-21T06:58:45;6.50;99.90
28677;DHT22;15858;48.338;11.078;2023-11-21T07:01:13;6.60;99.90
28677;DHT22;15858;48.338;11.078;2023-11-21T07:03:40;6.60;99.90
28677;DHT22;15858;48.338;11.078;2023-11-21T07:06:07;6.60;99.90
28677;DHT22;15858;48.338;11.078;2023-11-21T07:08:34;6.60;99.90
28677;DHT22;15858;48.338;11.078;2023-11-21T07:11:01;6.60;99.90
28677;DHT22;15858;48.338;11.078;2023-11-21T07:13:27;6.70;99.90
28677;DHT22;15858;48.338;11.078;2023-11-21T07:15:54;6.70;99.90
28677;DHT22;15858;48.338;11.078;2023-11-21T07:18:21;6.70;99.90
28677;DHT22;15858;48.338;11.078;2023-11-21T07:20:47;6.80;99.90
28677;DHT22;15858;48.338;11.078;2023-11-21T07:23:14;7.00;99.90
28677;DHT22;15858;48.338;11.078;2023-11-21T07:25:41;7.10;99.90
28677;DHT22;15858;48.338;11.078;2023-11-21T07:28:07;7.10;99.90
28677;DHT22;15858;48.338;11.078;2023-11-21T07:30:34;7.00;99.90
28677;DHT22;15858;48.338;11.078;2023-11-21T07:33:01;7.10;99.90
28677;DHT22;15858;48.338;11.078;2023-11-21T07:35:27;7.00;99.90
28677;DHT22;15858;48.338;11.078;2023-11-21T07:37:54;6.90;99.90
28677;DHT22;15858;48.338;11.078;2023-11-21T07:40:21;6.80;99.90
28677;DHT22;15858;48.338;11.078;2023-11-21T07:42:47;7.00;99.90
28677;DHT22;15858;48.338;11.078;2023-11-21T07:45:14;6.90;99.90
28677;DHT22;15858;48.338;11.078;2023-11-21T07:47:41;6.90;99.90
28677;DHT22;15858;48.338;11.078;2023-11-21T07:50:08;6.90;99.90
28677;DHT22;15858;48.338;11.078;2023-11-21T07:52:35;6.90;99.90
28677;DHT22;15858;48.338;11.078;2023-11-21T07:55:02;6.80;99.90
28677;DHT22;15858;48.338;11.078;2023-11-21T07:57:28;6.90;99.90
28677;DHT22;15858;48.338;11.078;2023-11-21T07:59:55;6.90;99.90
28677;DHT22;15858;48.338;11.078;2023-11-21T08:02:22;6.90;99.90
28677;DHT22;15858;48.338;11.078;2023-11-21T08:04:48;6.90;99.90
28677;DHT22;15858;48.338;11.078;2023-11-21T08:07:17;6.80;99.90
28677;DHT22;15858;48.338;11.078;2023-11-21T08:09:43;6.90;99.90
28677;DHT22;15858;48.338;11.078;2023-11-21T08:12:10;6.80;99.90
28677;DHT22;15858;48.338;11.078;2023-11-21T08:14:36;6.90;99.90
28677;DHT22;15858;48.338;11.078;2023-11-21T08:17:03;6.90;99.90
28677;DHT22;15858;48.338;11.078;2023-11-21T08:19:30;6.90;99.90
28677;DHT22;15858;48.338;11.078;2023-11-21T08:21:57;7.00;99.90
28677;DHT22;15858;48.338;11.078;2023-11-21T08:24:24;7.00;99.90
28677;DHT22;15858;48.338;11.078;2023-11-21T08:26:50;7.00;99.90
28677;DHT22;15858;48.338;11.078;2023-11-21T08:29:17;7.10;99.90
28677;DHT22;15858;48.338;11.078;2023-11-21T08:31:44;7.10;99.90
28677;DHT22;15858;48.338;11.078;2023-11-21T08:34:10;7.30;99.90
28677;DHT22;15858;48.338;11.078;2023-11-21T08:36:44;7.30;99.90
28677;DHT22;15858;48.338;11.078;2023-11-21T08:39:10;7.30;99.90
28677;DHT22;15858;48.338;11.078;2023-11-21T08:41:37;7.40;99.90
28677;DHT22;15858;48.338;11.078;2023-11-21T08:44:04;7.40;99.90
28677;DHT22;15858;48.338;11.078;2023-11-21T08:46:31;7.50;99.90
28677;DHT22;15858;48.338;11.078;2023-11-21T08:48:57;7.50;99.90
28677;DHT22;15858;48.338;11.078;2023-11-21T08:51:24;7.60;99.90
28677;DHT22;15858;48.338;11.078;2023-11-21T08:53:51;7.50;99.90
28677;DHT22;15858;48.338;11.078;2023-11-21T08:56:17;7.60;99.90
28677;DHT22;15858;48.338;11.078;2023-11-21T08:58:44;7.60;99.90
28677;DHT22;15858;48.338;11.078;2023-11-21T09:01:11;7.80;99.90
28677;DHT22;15858;48.338;11.078;2023-11-21T09:03:37;7.70;99.90
28677;DHT22;15858;48.338;11.078;2023-11-21T09:06:04;7.90;99.90
28677;DHT22;15858;48.338;11.078;2023-11-21T09:08:31;8.00;99.90
28677;DHT22;15858;48.338;11.078;2023-11-21T09:10:58;8.10;99.90
28677;DHT22;15858;48.338;11.078;2023-11-21T09:13:24;8.10;99.90
28677;DHT22;15858;48.338;11.078;2023-11-21T09:15:51;8.30;99.90
28677;DHT22;15858;48.338;11.078;2023-11-21T09:18:18;8.40;99.90
28677;DHT22;15858;48.338;11.078;2023-11-21T09:20:45;8.30;99.90
28677;DHT22;15858;48.338;11.078;2023-11-21T09:23:12;8.50;99.90
28677;DHT22;15858;48.338;11.078;2023-11-21T09:25:38;8.40;99.90
28677;DHT22;15858;48.338;11.078;2023-11-21T09:28:05;8.50;99.90
28677;DHT22;15858;48.338;11.078;2023-11-21T09:30:32;8.40;99.90
28677;DHT22;15858;48.338;11.078;2023-11-21T09:32:58;8.50;99.90
28677;DHT22;15858;48.338;11.078;2023-11-21T09:35:25;8.60;99.90
28677;DHT22;15858;48.338;11.078;2023-11-21T09:37:52;8.60;99.90
28677;DHT22;15858;48.338;11.078;2023-11-21T09:40:21;8.70;99.90
28677;DHT22;15858;48.338;11.078;2023-11-21T09:42:55;8.80;99.90
28677;DHT22;15858;48.338;11.078;2023-11-21T09:45:26;8.90;99.90
28677;DHT22;15858;48.338;11.078;2023-11-21T09:47:56;8.90;99.90
28677;DHT22;15858;48.338;11.078;2023-11-21T09:50:24;8.90;99.90
28677;DHT22;15858;48.338;11.078;2023-11-21T09:53:21;8.90;99.90
28677;DHT22;15858;48.338;11.078;2023-11-21T09:55:52;9.10;99.90
28677;DHT22;15858;48.338;11.078;2023-11-21T09:58:20;8.90;99.90
28677;DHT22;15858;48.338;11.078;2023-11-21T10:00:52;9.00;99.90
28677;DHT22;15858;48.338;11.078;2023-11-21T10:03:19;9.00;99.90
28677;DHT22;15858;48.338;11.078;2023-11-21T10:05:48;9.00;99.90
28677;DHT22;15858;48.338;11.078;2023-11-21T10:08:16;9.00;99.90
28677;DHT22;15858;48.338;11.078;2023-11-21T10:10:45;9.00;99.90
28677;DHT22;15858;48.338;11.078;2023-11-21T10:13:13;9.20;99.90
28677;DHT22;15858;48.338;11.078;2023-11-21T10:15:41;9.20;99.90
28677;DHT22;15858;48.338;11.078;2023-11-21T10:18:08;9.30;99.90
28677;DHT22;15858;48.338;11.078;2023-11-21T10:20:35;9.20;99.90
28677;DHT22;15858;48.338;11.078;2023-11-21T10:23:02;9.20;99.90
28677;DHT22;15858;48.338;11.078;2023-11-21T10:25:29;9.20;99.90
28677;DHT22;15858;48.338;11.078;2023-11-21T10:28:01;9.30;99.90
28677;DHT22;15858;48.338;11.078;2023-11-21T10:30:33;9.40;99.90
28677;DHT22;15858;48.338;11.078;2023-11-21T10:32:59;9.30;99.90
28677;DHT22;15858;48.338;11.078;2023-11-21T10:35:38;9.30;99.90
28677;DHT22;15858;48.338;11.078;2023-11-21T10:38:05;9.30;99.90
28677;DHT22;15858;48.338;11.078;2023-11-21T10:40:32;9.40;99.90
28677;DHT22;15858;48.338;11.078;2023-11-21T10:43:06;9.50;99.90
28677;DHT22;15858;48.338;11.078;2023-11-21T10:45:33;9.60;99.90
28677;DHT22;15858;48.338;11.078;2023-11-21T10:48:00;9.80;99.90
28677;DHT22;15858;48.338;11.078;2023-11-21T10:50:26;9.80;99.90
28677;DHT22;15858;48.338;11.078;2023-11-21T10:52:53;9.80;99.90
28677;DHT22;15858;48.338;11.078;2023-11-21T10:55:20;9.60;99.90
28677;DHT22;15858;48.338;11.078;2023-11-21T10:57:49;9.40;99.90
28677;DHT22;15858;48.338;11.078;2023-11-21T11:00:17;9.40;99.90
28677;DHT22;15858;48.338;11.078;2023-11-21T11:02:46;9.40;99.90
28677;DHT22;15858;48.338;11.078;2023-11-21T11:05:15;9.30;99.90
28677;DHT22;15858;48.338;11.078;2023-11-21T11:07:43;9.30;99.90
28677;DHT22;15858;48.338;11.078;2023-11-21T11:10:11;9.40;99.90
28677;DHT22;15858;48.338;11.078;2023-11-21T11:12:42;9.40;99.90
28677;DHT22;15858;48.338;11.078;2023-11-21T11:15:12;9.40;99.90
28677;DHT22;15858;48.338;11.078;2023-11-21T11:17:39;9.40;99.90
28677;DHT22;15858;48.338;11.078;2023-11-21T11:20:07;9.50;99.90
28677;DHT22;15858;48.338;11.078;2023-11-21T11:28:08;10.20;99.90
28677;DHT22;15858;48.338;11.078;2023-11-21T11:31:01;10.20;99.90
28677;DHT22;15858;48.338;11.078;2023-11-21T11:36:18;10.10;99.90
28677;DHT22;15858;48.338;11.078;2023-11-21T11:38:48;10.10;99.90
28677;DHT22;15858;48.338;11.078;2023-11-21T11:41:28;10.50;99.90
28677;DHT22;15858;48.338;11.078;2023-11-21T11:43:55;10.90;99.90
28677;DHT22;15858;48.338;11.078;2023-11-21T11:46:42;11.40;99.90
28677;DHT22;15858;48.338;11.078;2023-11-21T11:49:10;11.50;99.90
28677;DHT22;15858;48.338;11.078;2023-11-21T11:51:36;11.20;99.90
28677;DHT22;15858;48.338;11.078;2023-11-21T11:54:03;11.30;99.90
28677;DHT22;15858;48.338;11.078;2023-11-21T11:56:32;11.40;99.90
28677;DHT22;15858;48.338;11.078;2023-11-21T11:59:00;11.50;99.90
28677;DHT22;15858;48.338;11.078;2023-11-21T12:01:27;11.80;99.90
28677;DHT22;15858;48.338;11.078;2023-11-21T12:06:38;12.60;99.90
28677;DHT22;15858;48.338;11.078;2023-11-21T12:09:05;13.00;99.90
28677;DHT22;15858;48.338;11.078;2023-11-21T12:11:32;13.10;99.90
28677;DHT22;15858;48.338;11.078;2023-11-21T12:13:59;13.00;99.90
28677;DHT22;15858;48.338;11.078;2023-11-21T12:16:26;12.80;99.90
28677;DHT22;15858;48.338;11.078;2023-11-21T12:18:53;12.60;99.90
28677;DHT22;15858;48.338;11.078;2023-11-21T12:21:20;12.40;99.90
28677;DHT22;15858;48.338;11.078;2023-11-21T12:23:47;12.20;99.90
28677;DHT22;15858;48.338;11.078;2023-11-21T12:26:13;11.80;99.90
28677;DHT22;15858;48.338;11.078;2023-11-21T12:28:40;11.40;99.90
28677;DHT22;15858;48.338;11.078;2023-11-21T12:31:07;11.30;99.90
28677;DHT22;15858;48.338;11.078;2023-11-21T12:33:47;11.10;99.90
28677;DHT22;15858;48.338;11.078;2023-11-21T12:36:15;11.00;99.90
28677;DHT22;15858;48.338;11.078;2023-11-21T12:38:42;10.70;99.90
28677;DHT22;15858;48.338;11.078;2023-11-21T12:41:09;10.80;99.90
28677;DHT22;15858;48.338;11.078;2023-11-21T12:43:36;10.70;99.90
28677;DHT22;15858;48.338;11.078;2023-11-21T12:46:07;10.50;99.90
28677;DHT22;15858;48.338;11.078;2023-11-21T12:48:36;10.50;99.90
28677;DHT22;15858;48.338;11.078;2023-11-21T12:51:04;10.40;99.90
28677;DHT22;15858;48.338;11.078;2023-11-21T12:53:31;10.40;99.90
28677;DHT22;15858;48.338;11.078;2023-11-21T12:55:58;10.30;99.90
28677;DHT22;15858;48.338;11.078;2023-11-21T12:58:25;10.40;99.90
28677;DHT22;15858;48.338;11.078;2023-11-21T13:00:51;10.30;99.90
28677;DHT22;15858;48.338;11.078;2023-11-21T13:03:18;10.30;99.90
28677;DHT22;15858;48.338;11.078;2023-11-21T13:05:47;10.40;99.90
28677;DHT22;15858;48.338;11.078;2023-11-21T13:08:15;10.40;99.90
28677;DHT22;15858;48.338;11.078;2023-11-21T13:10:43;10.40;99.90
28677;DHT22;15858;48.338;11.078;2023-11-21T13:13:12;10.30;99.90
28677;DHT22;15858;48.338;11.078;2023-11-21T13:15:40;10.30;99.90
28677;DHT22;15858;48.338;11.078;2023-11-21T13:18:07;10.30;99.90
28677;DHT22;15858;48.338;11.078;2023-11-21T13:20:34;10.20;99.90
28677;DHT22;15858;48.338;11.078;2023-11-21T13:23:06;10.20;99.90
28677;DHT22;15858;48.338;11.078;2023-11-21T13:25:33;10.10;99.90
28677;DHT22;15858;48.338;11.078;2023-11-21T13:28:00;10.00;99.90
28677;DHT22;15858;48.338;11.078;2023-11-21T13:30:28;10.00;99.90
28677;DHT22;15858;48.338;11.078;2023-11-21T13:32:55;10.00;99.90
28677;DHT22;15858;48.338;11.078;2023-11-21T13:35:21;10.00;99.90
28677;DHT22;15858;48.338;11.078;2023-11-21T13:37:50;10.10;99.90
28677;DHT22;15858;48.338;11.078;2023-11-21T13:40:19;10.10;99.90
28677;DHT22;15858;48.338;11.078;2023-11-21T13:42:46;10.10;99.90
28677;DHT22;15858;48.338;11.078;2023-11-21T13:45:13;10.10;99.90
28677;DHT22;15858;48.338;11.078;2023-11-21T13:47:39;10.20;99.90
28677;DHT22;15858;48.338;11.078;2023-11-21T13:50:07;10.20;99.90
28677;DHT22;15858;48.338;11.078;2023-11-21T13:52:34;10.30;99.90
28677;DHT22;15858;48.338;11.078;2023-11-21T13:55:01;10.20;99.90
28677;DHT22;15858;48.338;11.078;2023-11-21T13:57:28;10.30;99.90
28677;DHT22;15858;48.338;11.078;2023-11-21T13:59:54;10.20;99.90
28677;DHT22;15858;48.338;11.078;2023-11-21T14:02:21;10.10;99.90
28677;DHT22;15858;48.338;11.078;2023-11-21T14:04:48;9.90;99.90
28677;DHT22;15858;48.338;11.078;2023-11-21T14:07:14;9.70;99.90
28677;DHT22;15858;48.338;11.078;2023-11-21T14:09:41;9.50;99.90
28677;DHT22;15858;48.338;11.078;2023-11-21T14:12:08;9.40;99.90
28677;DHT22;15858;48.338;11.078;2023-11-21T14:14:34;9.20;99.90
28677;DHT22;15858;48.338;11.078;2023-11-21T14:17:01;9.20;99.90
28677;DHT22;15858;48.338;11.078;2023-11-21T14:19:27;9.10;99.90
28677;DHT22;15858;48.338;11.078;2023-11-21T14:21:54;9.00;99.90
28677;DHT22;15858;48.338;11.078;2023-11-21T14:24:21;8.90;99.90
28677;DHT22;15858;48.338;11.078;2023-11-21T14:26:48;8.80;99.90
28677;DHT22;15858;48.338;11.078;2023-11-21T14:29:16;8.80;99.90
28677;DHT22;15858;48.338;11.078;2023-11-21T14:31:43;8.80;99.90
28677;DHT22;15858;48.338;11.078;2023-11-21T14:34:10;8.80;99.90
28677;DHT22;15858;48.338;11.078;2023-11-21T14:36:38;8.80;99.90
28677;DHT22;15858;48.338;11.078;2023-11-21T14:39:05;8.80;99.90
28677;DHT22;15858;48.338;11.078;2023-11-21T14:41:31;8.70;99.90
28677;DHT22;15858;48.338;11.078;2023-11-21T14:43:58;8.80;99.90
28677;DHT22;15858;48.338;11.078;2023-11-21T14:46:25;8.70;99.90
28677;DHT22;15858;48.338;11.078;2023-11-21T14:48:51;8.80;99.90
28677;DHT22;15858;48.338;11.078;2023-11-21T14:51:18;8.80;99.90
28677;DHT22;15858;48.338;11.078;2023-11-21T14:53:45;8.80;99.90
28677;DHT22;15858;48.338;11.078;2023-11-21T14:56:11;8.70;99.90
28677;DHT22;15858;48.338;11.078;2023-11-21T14:58:38;8.70;99.90
28677;DHT22;15858;48.338;11.078;2023-11-21T15:01:05;8.70;99.90
28677;DHT22;15858;48.338;11.078;2023-11-21T15:03:31;8.60;99.90
28677;DHT22;15858;48.338;11.078;2023-11-21T15:06:03;8.60;99.90
28677;DHT22;15858;48.338;11.078;2023-11-21T15:08:30;8.70;99.90
28677;DHT22;15858;48.338;11.078;2023-11-21T15:10:56;8.60;99.90
28677;DHT22;15858;48.338;11.078;2023-11-21T15:13:23;8.60;99.90
28677;DHT22;15858;48.338;11.078;2023-11-21T15:15:50;8.70;99.90
28677;DHT22;15858;48.338;11.078;2023-11-21T15:18:18;8.70;99.90
28677;DHT22;15858;48.338;11.078;2023-11-21T15:20:45;8.60;99.90
28677;DHT22;15858;48.338;11.078;2023-11-21T15:23:12;8.70;99.90
28677;DHT22;15858;48.338;11.078;2023-11-21T15:25:39;8.60;99.90
28677;DHT22;15858;48.338;11.078;2023-11-21T15:28:06;8.70;99.90
28677;DHT22;15858;48.338;11.078;2023-11-21T15:30:32;8.70;99.90
28677;DHT22;15858;48.338;11.078;2023-11-21T15:32:59;8.60;99.90
28677;DHT22;15858;48.338;11.078;2023-11-21T15:35:26;8.60;99.90
28677;DHT22;15858;48.338;11.078;2023-11-21T15:37:53;8.60;99.90
28677;DHT22;15858;48.338;11.078;2023-11-21T15:40:20;8.60;99.90